createdAt,value
2018-06-29T00:01:16.130Z,1.17
2018-06-29T00:03:44.709Z,1.23
2018-06-29T00:06:13.266Z,1.10
2018-06-29T00:08:41.955Z,1.20
2018-06-29T00:11:11.398Z,1.30
2018-06-29T00:13:39.886Z,1.20
2018-06-29T00:16:08.391Z,1.20
2018-06-29T00:18:36.730Z,1.10
2018-06-29T00:21:05.195Z,1.00
2018-06-29T00:23:33.491Z,1.00
2018-06-29T00:26:02.118Z,1.40
2018-06-29T00:28:30.893Z,1.30
2018-06-29T00:30:59.974Z,1.10
2018-06-29T00:33:28.707Z,1.20
2018-06-29T00:35:56.863Z,1.20
2018-06-29T00:38:25.245Z,1.20
2018-06-29T00:40:53.704Z,1.27
2018-06-29T00:43:22.374Z,1.10
2018-06-29T00:45:51.053Z,1.30
2018-06-29T00:48:19.391Z,1.23
2018-06-29T00:50:48.018Z,1.30
2018-06-29T00:53:16.737Z,1.10
2018-06-29T00:55:45.021Z,1.17
2018-06-29T00:58:13.430Z,1.23
2018-06-29T01:00:42.207Z,1.00
2018-06-29T01:03:11.054Z,1.33
2018-06-29T01:05:39.655Z,1.20
2018-06-29T01:08:08.264Z,1.30
2018-06-29T01:10:36.689Z,1.03
2018-06-29T01:13:05.165Z,1.33
2018-06-29T01:15:33.704Z,1.30
2018-06-29T01:18:02.317Z,1.27
2018-06-29T01:20:30.878Z,1.30
2018-06-29T01:22:59.341Z,1.30
2018-06-29T01:25:27.858Z,1.17
2018-06-29T01:27:56.332Z,1.30
2018-06-29T01:30:25.099Z,1.30
2018-06-29T01:32:53.495Z,1.30
2018-06-29T01:35:22.152Z,1.30
2018-06-29T01:37:50.550Z,1.40
2018-06-29T01:40:19.129Z,1.50
2018-06-29T01:42:47.687Z,1.27
2018-06-29T01:45:16.347Z,1.33
2018-06-29T01:47:45.282Z,1.20
2018-06-29T01:50:13.976Z,1.30
2018-06-29T01:52:42.458Z,1.30
2018-06-29T01:55:10.990Z,1.20
2018-06-29T01:57:39.681Z,1.40
2018-06-29T02:00:08.367Z,1.50
2018-06-29T02:02:37.019Z,1.40
2018-06-29T02:05:05.481Z,1.50
2018-06-29T02:07:33.876Z,1.20
2018-06-29T02:10:02.438Z,1.70
2018-06-29T02:12:31.069Z,1.67
2018-06-29T02:14:59.591Z,1.67
2018-06-29T02:17:28.145Z,2.40
2018-06-29T02:19:56.466Z,2.23
2018-06-29T02:22:24.936Z,2.30
2018-06-29T02:24:53.461Z,1.90
2018-06-29T02:27:22.051Z,2.57
2018-06-29T02:29:50.686Z,2.10
2018-06-29T02:32:19.335Z,2.10
2018-06-29T02:34:48.159Z,1.97
2018-06-29T02:37:16.899Z,1.90
2018-06-29T02:39:45.691Z,2.00
2018-06-29T02:42:14.381Z,1.93
2018-06-29T02:44:43.222Z,1.90
2018-06-29T02:47:12.062Z,2.00
2018-06-29T02:49:40.859Z,1.80
2018-06-29T02:52:09.542Z,1.40
2018-06-29T02:54:38.475Z,1.50
2018-06-29T02:57:06.983Z,1.30
2018-06-29T02:59:36.319Z,1.50
2018-06-29T03:02:04.576Z,1.30
2018-06-29T03:04:32.840Z,1.40
2018-06-29T03:07:01.451Z,1.20
2018-06-29T03:09:30.186Z,1.23
2018-06-29T03:11:58.546Z,1.30
2018-06-29T03:14:28.486Z,1.20
2018-06-29T03:16:57.071Z,1.30
2018-06-29T03:19:25.623Z,1.30
2018-06-29T03:21:54.313Z,1.20
2018-06-29T03:24:23.110Z,1.20
2018-06-29T03:26:51.740Z,1.20
2018-06-29T03:29:20.268Z,1.30
2018-06-29T03:31:49.015Z,1.20
2018-06-29T03:34:17.663Z,1.20
2018-06-29T03:36:46.314Z,1.07
2018-06-29T03:39:14.703Z,1.00
2018-06-29T03:41:43.134Z,1.10
2018-06-29T03:44:11.682Z,1.30
2018-06-29T03:46:40.323Z,0.97
2018-06-29T03:49:08.959Z,1.10
2018-06-29T03:51:37.339Z,1.07
2018-06-29T03:54:06.242Z,1.00
2018-06-29T03:56:34.772Z,1.00
2018-06-29T03:59:03.046Z,0.87
2018-06-29T04:01:31.343Z,1.10
2018-06-29T04:03:59.784Z,0.90
2018-06-29T04:06:28.224Z,1.03
2018-06-29T04:08:56.382Z,0.80
2018-06-29T04:11:27.253Z,0.90
2018-06-29T04:13:55.668Z,1.00
2018-06-29T04:16:24.134Z,1.03
2018-06-29T04:18:52.950Z,1.30
2018-06-29T04:21:21.346Z,1.20
2018-06-29T04:23:50.127Z,1.00
2018-06-29T04:26:18.974Z,1.00
2018-06-29T04:28:47.470Z,0.97
2018-06-29T04:31:16.214Z,1.07
2018-06-29T04:33:44.938Z,1.30
2018-06-29T04:36:13.734Z,1.17
2018-06-29T04:38:42.178Z,1.10
2018-06-29T04:41:11.499Z,1.20
2018-06-29T04:43:39.859Z,1.17
2018-06-29T04:46:08.600Z,1.20
2018-06-29T04:48:37.366Z,0.97
2018-06-29T04:51:08.518Z,1.00
2018-06-29T04:53:37.209Z,1.20
2018-06-29T04:56:05.720Z,1.13
2018-06-29T04:58:34.386Z,1.00
2018-06-29T05:01:02.971Z,1.00
2018-06-29T05:03:31.306Z,1.00
2018-06-29T05:06:00.037Z,1.10
2018-06-29T05:08:28.478Z,1.13
2018-06-29T05:10:57.174Z,1.10
2018-06-29T05:13:25.787Z,1.20
2018-06-29T05:15:54.186Z,1.20
2018-06-29T05:18:22.511Z,1.50
2018-06-29T05:20:50.761Z,1.50
2018-06-29T05:23:19.588Z,1.60
2018-06-29T05:25:47.934Z,1.70
2018-06-29T05:28:16.476Z,2.20
2018-06-29T05:30:45.055Z,2.40
2018-06-29T05:33:13.768Z,2.40
2018-06-29T05:35:42.583Z,2.63
2018-06-29T05:38:11.250Z,2.63
2018-06-29T05:40:39.856Z,3.90
2018-06-29T05:43:08.630Z,4.30
2018-06-29T05:45:37.094Z,5.07
2018-06-29T05:48:06.077Z,4.63
2018-06-29T05:50:34.956Z,4.10
2018-06-29T05:53:03.621Z,3.90
2018-06-29T05:55:41.023Z,4.87
2018-06-29T05:58:09.512Z,4.50
2018-06-29T06:00:39.037Z,5.73
2018-06-29T06:03:07.797Z,6.33
2018-06-29T06:05:36.621Z,6.07
2018-06-29T06:08:05.320Z,5.60
2018-06-29T06:10:33.980Z,5.53
2018-06-29T06:13:02.244Z,6.03
2018-06-29T06:15:30.864Z,5.97
2018-06-29T06:17:59.309Z,6.77
2018-06-29T06:20:28.364Z,6.83
2018-06-29T06:23:28.405Z,7.20
2018-06-29T06:25:57.081Z,7.23
2018-06-29T06:28:25.732Z,8.47
2018-06-29T06:30:54.135Z,7.53
2018-06-29T06:33:22.588Z,6.30
2018-06-29T06:35:50.945Z,5.70
2018-06-29T06:38:19.440Z,4.13
2018-06-29T06:40:48.198Z,3.17
2018-06-29T06:43:16.664Z,3.00
2018-06-29T06:45:45.129Z,2.40
2018-06-29T06:48:13.660Z,2.33
2018-06-29T06:50:42.232Z,2.23
2018-06-29T06:53:10.687Z,2.37
2018-06-29T06:55:39.237Z,2.10
2018-06-29T06:58:08.004Z,2.27
2018-06-29T07:00:36.492Z,2.60
2018-06-29T07:03:05.105Z,2.23
2018-06-29T07:05:33.992Z,2.33
2018-06-29T07:08:02.669Z,2.43
2018-06-29T07:10:31.644Z,2.13
2018-06-29T07:13:00.036Z,2.07
2018-06-29T07:15:28.974Z,2.10
2018-06-29T07:17:57.365Z,2.10
2018-06-29T07:20:25.539Z,2.00
2018-06-29T07:22:54.090Z,1.70
2018-06-29T07:25:22.568Z,1.67
2018-06-29T07:27:51.052Z,1.87
2018-06-29T07:30:19.629Z,1.60
2018-06-29T07:32:48.111Z,1.90
2018-06-29T07:35:16.577Z,1.70
2018-06-29T07:37:44.987Z,1.67
2018-06-29T07:40:13.376Z,1.57
2018-06-29T07:42:41.730Z,1.80
2018-06-29T07:45:10.252Z,2.27
2018-06-29T07:47:38.696Z,2.30
2018-06-29T07:50:07.221Z,2.50
2018-06-29T07:52:35.664Z,2.03
2018-06-29T07:55:04.212Z,2.10
2018-06-29T07:57:32.636Z,2.13
2018-06-29T08:00:01.162Z,3.27
2018-06-29T08:02:29.633Z,3.67
2018-06-29T08:04:57.884Z,3.60
2018-06-29T08:07:26.270Z,3.23
2018-06-29T08:09:54.708Z,2.63
2018-06-29T08:12:23.236Z,3.20
2018-06-29T08:15:25.133Z,3.30
2018-06-29T08:17:53.702Z,3.13
2018-06-29T08:20:22.261Z,3.00
2018-06-29T08:22:50.662Z,2.83
2018-06-29T08:25:19.156Z,3.20
2018-06-29T08:27:47.594Z,3.73
2018-06-29T08:30:16.009Z,4.07
2018-06-29T08:32:44.589Z,3.80
2018-06-29T08:35:13.492Z,3.30
2018-06-29T08:37:42.360Z,2.93
2018-06-29T08:40:10.787Z,2.77
2018-06-29T08:42:39.247Z,2.83
2018-06-29T08:45:08.727Z,2.50
2018-06-29T08:47:37.503Z,2.20
2018-06-29T08:50:06.327Z,2.00
2018-06-29T08:52:35.208Z,2.40
2018-06-29T08:55:03.981Z,2.50
2018-06-29T08:57:32.686Z,2.43
2018-06-29T09:00:01.150Z,3.07
2018-06-29T09:02:29.704Z,2.80
2018-06-29T09:04:58.270Z,2.30
2018-06-29T09:07:26.930Z,2.60
2018-06-29T09:09:55.411Z,2.60
2018-06-29T09:12:24.280Z,3.37
2018-06-29T09:15:38.533Z,2.70
2018-06-29T09:18:07.085Z,2.70
2018-06-29T09:20:35.336Z,2.30
2018-06-29T09:23:03.784Z,2.37
2018-06-29T09:25:32.596Z,2.10
2018-06-29T09:28:01.323Z,1.90
2018-06-29T09:30:30.062Z,1.70
2018-06-29T09:32:58.628Z,1.57
2018-06-29T09:35:27.345Z,1.47
2018-06-29T09:37:55.812Z,1.30
2018-06-29T09:40:24.228Z,1.50
2018-06-29T09:42:52.708Z,1.57
2018-06-29T09:45:21.140Z,1.70
2018-06-29T09:47:49.408Z,1.57
2018-06-29T09:50:17.774Z,1.53
2018-06-29T09:52:46.221Z,1.60
2018-06-29T09:55:14.573Z,1.90
2018-06-29T09:57:43.370Z,1.80
2018-06-29T10:00:15.438Z,1.27
2018-06-29T10:02:45.261Z,1.50
2018-06-29T10:05:13.680Z,1.80
2018-06-29T10:07:42.087Z,1.40
2018-06-29T10:10:10.664Z,1.53
2018-06-29T10:12:39.192Z,1.60
2018-06-29T10:15:49.355Z,1.87
2018-06-29T10:18:17.791Z,1.57
2018-06-29T10:20:45.926Z,1.70
2018-06-29T10:23:14.428Z,1.37
2018-06-29T10:25:42.753Z,1.80
2018-06-29T10:28:11.340Z,1.60
2018-06-29T10:30:39.784Z,1.40
2018-06-29T10:33:08.343Z,1.60
2018-06-29T10:35:36.788Z,1.70
2018-06-29T10:38:05.184Z,1.30
2018-06-29T10:40:33.616Z,1.30
2018-06-29T10:43:02.079Z,1.50
2018-06-29T10:45:30.641Z,1.30
2018-06-29T10:47:59.076Z,1.50
2018-06-29T10:50:27.708Z,1.37
2018-06-29T10:52:56.316Z,1.23
2018-06-29T10:55:24.420Z,1.40
2018-06-29T10:57:52.856Z,1.30
2018-06-29T11:00:21.249Z,1.40
2018-06-29T11:02:49.752Z,1.30
2018-06-29T11:05:18.340Z,1.00
2018-06-29T11:07:46.912Z,1.10
2018-06-29T11:10:15.356Z,1.33
2018-06-29T11:12:43.681Z,1.40
2018-06-29T11:16:00.977Z,1.40
2018-06-29T11:18:29.503Z,1.27
2018-06-29T11:20:57.965Z,1.37
2018-06-29T11:23:26.413Z,1.50
2018-06-29T11:25:54.784Z,1.23
2018-06-29T11:28:23.315Z,1.30
2018-06-29T11:30:52.081Z,1.20
2018-06-29T11:33:20.509Z,1.30
2018-06-29T11:35:49.015Z,1.33
2018-06-29T11:38:17.115Z,1.20
2018-06-29T11:40:45.580Z,1.37
2018-06-29T11:43:14.097Z,1.37
2018-06-29T11:45:42.668Z,1.20
2018-06-29T11:48:11.285Z,1.10
2018-06-29T11:50:39.696Z,1.30
2018-06-29T11:53:08.190Z,1.47
2018-06-29T11:55:36.611Z,1.40
2018-06-29T11:58:05.048Z,1.50
2018-06-29T12:00:34.036Z,1.50
2018-06-29T12:03:02.593Z,1.40
2018-06-29T12:05:31.372Z,1.60
2018-06-29T12:08:00.178Z,1.50
2018-06-29T12:10:29.111Z,1.70
2018-06-29T12:12:57.840Z,1.40
2018-06-29T12:16:13.357Z,1.40
2018-06-29T12:18:42.151Z,1.27
2018-06-29T12:21:10.605Z,1.40
2018-06-29T12:23:39.128Z,1.30
2018-06-29T12:26:07.922Z,1.20
2018-06-29T12:28:36.341Z,1.30
2018-06-29T12:31:04.741Z,1.42
2018-06-29T12:33:33.200Z,1.42
2018-06-29T12:36:01.929Z,1.40
2018-06-29T12:38:30.648Z,1.40
2018-06-29T12:40:59.248Z,1.30
2018-06-29T12:43:27.745Z,1.42
2018-06-29T12:45:56.382Z,1.23
2018-06-29T12:48:24.819Z,1.43
2018-06-29T12:51:30.471Z,1.40
2018-06-29T12:53:59.330Z,1.50
2018-06-29T12:56:28.173Z,1.70
2018-06-29T12:58:56.744Z,1.60
2018-06-29T13:01:25.153Z,1.70
2018-06-29T13:03:53.548Z,1.80
2018-06-29T13:06:22.062Z,1.70
2018-06-29T13:08:50.478Z,1.87
2018-06-29T13:11:28.552Z,1.82
2018-06-29T13:13:57.184Z,1.60
2018-06-29T13:16:33.673Z,1.60
2018-06-29T13:19:02.304Z,1.67
2018-06-29T13:21:30.658Z,1.70
2018-06-29T13:23:59.052Z,2.02
2018-06-29T13:26:27.611Z,1.40
2018-06-29T13:28:56.199Z,1.80
2018-06-29T13:31:24.570Z,1.57
2018-06-29T13:33:53.049Z,1.60
2018-06-29T13:36:21.444Z,1.92
2018-06-29T13:38:49.821Z,1.80
2018-06-29T13:41:18.431Z,1.77
2018-06-29T13:43:47.031Z,1.83
2018-06-29T13:46:16.206Z,1.80
2018-06-29T13:48:45.003Z,1.60
2018-06-29T13:51:14.139Z,1.80
2018-06-29T13:53:42.700Z,1.95
2018-06-29T13:56:11.178Z,1.80
2018-06-29T13:58:39.593Z,1.77
2018-06-29T14:01:08.028Z,1.70
2018-06-29T14:03:36.536Z,1.97
2018-06-29T14:06:04.906Z,1.90
2018-06-29T14:08:33.445Z,1.50
2018-06-29T14:11:01.817Z,1.70
2018-06-29T14:13:30.158Z,1.67
2018-06-29T14:16:39.862Z,1.57
2018-06-29T14:19:08.349Z,1.90
2018-06-29T14:21:36.833Z,1.70
2018-06-29T14:24:05.670Z,1.67
2018-06-29T14:26:34.121Z,1.50
2018-06-29T14:29:02.649Z,1.50
2018-06-29T14:31:31.165Z,1.50
2018-06-29T14:33:59.608Z,1.70
2018-06-29T14:36:28.120Z,1.60
2018-06-29T14:38:56.691Z,1.77
2018-06-29T14:41:25.148Z,1.70
2018-06-29T14:43:53.641Z,1.60
2018-06-29T14:46:21.957Z,1.80
2018-06-29T14:48:50.436Z,1.62
2018-06-29T14:51:19.364Z,1.73
2018-06-29T14:53:47.813Z,1.50
2018-06-29T14:56:16.144Z,1.63
2018-06-29T14:58:44.579Z,1.30
2018-06-29T15:01:13.694Z,1.70
2018-06-29T15:03:42.107Z,1.60
2018-06-29T15:06:10.496Z,1.70
2018-06-29T15:08:39.012Z,1.85
2018-06-29T15:11:07.565Z,1.80
2018-06-29T15:13:36.168Z,1.40
2018-06-29T15:16:53.122Z,1.60
2018-06-29T15:19:21.732Z,1.57
2018-06-29T15:21:50.252Z,1.70
2018-06-29T15:24:18.662Z,1.60
2018-06-29T15:26:47.110Z,1.20
2018-06-29T15:29:15.623Z,1.75
2018-06-29T15:31:44.079Z,1.50
2018-06-29T15:34:12.600Z,1.93
2018-06-29T15:36:41.051Z,1.87
2018-06-29T15:39:11.582Z,1.80
2018-06-29T15:41:40.238Z,2.07
2018-06-29T15:44:09.044Z,1.83
2018-06-29T15:46:37.564Z,1.90
2018-06-29T15:49:06.515Z,1.70
2018-06-29T15:51:35.102Z,1.65
2018-06-29T15:54:03.530Z,1.93
2018-06-29T15:56:31.993Z,1.80
2018-06-29T15:59:00.584Z,2.00
2018-06-29T16:01:29.495Z,1.72
2018-06-29T16:03:58.076Z,1.90
2018-06-29T16:06:26.582Z,2.20
2018-06-29T16:08:54.920Z,2.10
2018-06-29T16:11:27.562Z,2.00
2018-06-29T16:13:56.014Z,2.23
2018-06-29T16:17:04.176Z,2.30
2018-06-29T16:19:32.673Z,2.08
2018-06-29T16:22:01.087Z,2.00
2018-06-29T16:24:29.437Z,1.87
2018-06-29T16:26:57.896Z,2.13
2018-06-29T16:29:26.458Z,2.10
2018-06-29T16:31:54.781Z,1.97
2018-06-29T16:34:23.384Z,2.00
2018-06-29T16:36:52.001Z,1.93
2018-06-29T16:39:20.577Z,2.20
2018-06-29T16:41:48.882Z,2.30
2018-06-29T16:44:17.344Z,2.10
2018-06-29T16:46:45.916Z,1.90
2018-06-29T16:49:24.678Z,2.40
2018-06-29T16:51:53.156Z,1.93
2018-06-29T16:54:21.759Z,1.80
2018-06-29T16:56:50.137Z,2.03
2018-06-29T16:59:18.543Z,2.00
2018-06-29T17:01:46.956Z,1.87
2018-06-29T17:04:15.389Z,1.60
2018-06-29T17:06:43.740Z,1.80
2018-06-29T17:09:12.436Z,2.27
2018-06-29T17:11:40.945Z,1.90
2018-06-29T17:14:09.735Z,1.83
2018-06-29T17:17:15.215Z,1.90
2018-06-29T17:19:44.071Z,2.00
2018-06-29T17:22:12.759Z,1.77
2018-06-29T17:24:41.457Z,2.00
2018-06-29T17:27:09.854Z,2.37
2018-06-29T17:29:38.265Z,2.20
2018-06-29T17:32:06.696Z,2.03
2018-06-29T17:34:35.184Z,2.20
2018-06-29T17:37:03.820Z,2.40
2018-06-29T17:39:32.584Z,2.23
2018-06-29T17:42:01.343Z,2.33
2018-06-29T17:44:30.041Z,2.20
2018-06-29T17:46:58.705Z,2.17
2018-06-29T17:49:27.076Z,1.87
2018-06-29T17:51:55.463Z,2.07
2018-06-29T17:54:24.091Z,2.30
2018-06-29T17:56:52.424Z,1.87
2018-06-29T17:59:21.180Z,2.30
2018-06-29T18:01:49.601Z,2.23
2018-06-29T18:04:17.956Z,2.03
2018-06-29T18:06:46.470Z,2.17
2018-06-29T18:09:15.276Z,2.50
2018-06-29T18:11:43.694Z,2.30
2018-06-29T18:14:12.297Z,2.60
2018-06-29T18:17:25.087Z,2.60
2018-06-29T18:19:53.660Z,2.50
2018-06-29T18:22:22.049Z,2.40
2018-06-29T18:24:50.570Z,2.80
2018-06-29T18:27:19.018Z,2.90
2018-06-29T18:29:47.875Z,2.50
2018-06-29T18:32:16.278Z,2.97
2018-06-29T18:34:44.780Z,2.93
2018-06-29T18:37:13.543Z,3.30
2018-06-29T18:39:42.424Z,3.27
2018-06-29T18:42:11.324Z,2.83
2018-06-29T18:44:40.053Z,3.17
2018-06-29T18:47:08.725Z,2.57
2018-06-29T18:49:37.312Z,2.57
2018-06-29T18:52:05.857Z,2.93
2018-06-29T18:54:34.326Z,2.50
2018-06-29T18:57:03.160Z,2.70
2018-06-29T18:59:32.055Z,2.70
2018-06-29T19:02:00.757Z,2.50
2018-06-29T19:04:29.449Z,2.70
2018-06-29T19:06:57.766Z,2.80
2018-06-29T19:09:26.308Z,2.27
2018-06-29T19:11:54.671Z,2.30
2018-06-29T19:14:39.754Z,2.30
2018-06-29T19:17:37.835Z,2.07
2018-06-29T19:20:07.759Z,2.10
2018-06-29T19:22:36.200Z,1.97
2018-06-29T19:25:04.837Z,2.00
2018-06-29T19:27:33.326Z,2.87
2018-06-29T19:30:02.081Z,2.30
2018-06-29T19:32:30.601Z,2.50
2018-06-29T19:34:59.254Z,2.60
2018-06-29T19:37:28.072Z,2.33
2018-06-29T19:39:56.672Z,2.60
2018-06-29T19:42:25.340Z,1.97
2018-06-29T19:44:54.082Z,2.50
2018-06-29T19:47:23.112Z,2.40
2018-06-29T19:49:52.067Z,2.63
2018-06-29T19:52:21.153Z,2.30
2018-06-29T19:54:50.318Z,2.30
2018-06-29T19:57:19.131Z,2.43
2018-06-29T19:59:47.974Z,2.50
2018-06-29T20:02:17.413Z,2.20
2018-06-29T20:04:46.199Z,2.47
2018-06-29T20:07:15.505Z,2.50
2018-06-29T20:09:44.462Z,2.23
2018-06-29T20:12:13.255Z,2.30
2018-06-29T20:15:08.075Z,2.90
2018-06-29T20:17:54.421Z,2.63
2018-06-29T20:20:24.759Z,2.80
2018-06-29T20:22:53.888Z,2.37
2018-06-29T20:25:27.515Z,2.70
2018-06-29T20:28:53.021Z,2.90
2018-06-29T20:31:23.350Z,2.83
2018-06-29T20:33:53.021Z,2.27
2018-06-29T20:36:22.869Z,2.97
2018-06-29T20:38:52.067Z,2.60
2018-06-29T20:41:20.904Z,2.97
2018-06-29T20:43:50.639Z,2.73
2018-06-29T20:46:20.028Z,2.97
2018-06-29T20:48:49.119Z,2.83
2018-06-29T20:51:18.312Z,2.50
2018-06-29T20:53:47.104Z,2.70
2018-06-29T20:56:16.448Z,3.00
2018-06-29T20:58:46.408Z,2.80
2018-06-29T21:01:16.104Z,2.30
2018-06-29T21:03:44.960Z,3.00
2018-06-29T21:06:14.988Z,2.70
2018-06-29T21:08:43.768Z,2.77
2018-06-29T21:11:13.562Z,2.57
2018-06-29T21:13:42.024Z,2.80
2018-06-29T21:19:42.286Z,2.50
2018-06-29T21:22:11.218Z,2.50
2018-06-29T21:24:39.505Z,2.50
2018-06-29T21:27:07.908Z,2.57
2018-06-29T21:29:36.391Z,2.60
2018-06-29T21:32:05.076Z,2.47
2018-06-29T21:34:33.562Z,2.40
2018-06-29T21:37:02.068Z,2.30
2018-06-29T21:39:30.488Z,2.47
2018-06-29T21:41:59.015Z,2.80
2018-06-29T21:44:27.543Z,3.00
2018-06-29T21:46:56.025Z,2.90
2018-06-29T21:49:24.463Z,2.80
2018-06-29T21:51:52.948Z,2.40
2018-06-29T21:54:21.463Z,2.30
2018-06-29T21:56:49.954Z,2.70
2018-06-29T21:59:18.689Z,2.40
2018-06-29T22:01:47.244Z,2.40
2018-06-29T22:04:15.788Z,2.60
2018-06-29T22:06:44.696Z,2.60
2018-06-29T22:09:13.071Z,2.33
2018-06-29T22:11:42.044Z,2.30
2018-06-29T22:14:10.441Z,2.50
2018-06-29T22:16:39.329Z,2.40
2018-06-29T22:19:07.902Z,2.47
2018-06-29T22:21:36.292Z,2.60
2018-06-29T22:24:04.821Z,2.50
2018-06-29T22:26:33.295Z,2.73
2018-06-29T22:29:01.733Z,2.90
2018-06-29T22:31:30.219Z,2.93
2018-06-29T22:33:58.977Z,2.60
2018-06-29T22:36:27.612Z,2.77
2018-06-29T22:38:56.013Z,2.87
2018-06-29T22:41:24.377Z,2.70
2018-06-29T22:43:52.801Z,2.80
2018-06-29T22:46:21.305Z,2.60
2018-06-29T22:48:49.537Z,2.70
2018-06-29T22:51:18.044Z,2.47
2018-06-29T22:53:46.368Z,2.73
2018-06-29T22:56:15.428Z,2.40
2018-06-29T22:58:43.772Z,2.40
2018-06-29T23:01:12.952Z,2.60
2018-06-29T23:03:46.687Z,2.67
2018-06-29T23:06:15.913Z,2.90
2018-06-29T23:08:44.764Z,2.80
2018-06-29T23:11:13.252Z,2.50
2018-06-29T23:13:41.773Z,2.60
2018-06-29T23:16:10.293Z,2.53
2018-06-29T23:18:38.816Z,2.50
2018-06-29T23:21:07.563Z,2.90
2018-06-29T23:23:36.107Z,2.70
2018-06-29T23:26:04.733Z,2.70
2018-06-29T23:28:33.204Z,3.03
2018-06-29T23:31:01.716Z,2.90
2018-06-29T23:33:30.130Z,3.00
2018-06-29T23:35:59.162Z,2.63
2018-06-29T23:38:27.463Z,3.00
2018-06-29T23:40:56.190Z,3.07
2018-06-29T23:43:25.046Z,2.90
2018-06-29T23:45:53.479Z,3.60
2018-06-29T23:48:21.906Z,3.33
2018-06-29T23:50:50.652Z,3.40
2018-06-29T23:53:19.068Z,4.00
2018-06-29T23:55:47.529Z,5.10
2018-06-29T23:58:15.996Z,5.10
